Terminal Aerodrome Forecast
Issued by NWS Sioux Falls, SD

Home | Current Version | Previous Version | Text Only | Print | Product List | Glossary On
Versions: 1 2 3 4 5 6 7 8 9 10 11 12 13 14 15 16 17
000
FTUS43 KFSD 141132
TAFSUX
TAF
KSUX 141132Z 1412/1512 07008KT 5SM BR VCSH FEW005 OVC009
     FM141500 10005KT 5SM BR VCSH SCT003 OVC006
     FM142200 29012KT P6SM VCSH OVC010
     FM150100 32023G31KT P6SM VCSH BKN030
     FM150400 33022G31KT P6SM BKN040
     FM150900 32013KT P6SM SCT140=

USA.gov is the U.S. government's official web portal to all federal, state and local government web resources and services.